Time,TemperatureF,DewpointF,PressureIn,WindDirection,WindDirectionDegrees,WindSpeedMPH,WindSpeedGustMPH,Humidity,HourlyPrecipIn,Conditions,Clouds,dailyrainin,SoftwareType,DateUTC
2013-05-21 00:01:00,61.8,59.8,29.97,ESE,111,0.0,0.0,93,0.00,RA,,0.00,WeatherDisplay:10.37,2013-05-21 04:01:00,
2013-05-21 00:02:00,61.8,59.8,29.97,ESE,111,0.0,0.0,93,0.00,RA,,0.00,WeatherDisplay:10.37,2013-05-21 04:02:00,
2013-05-21 00:07:00,61.7,60.0,29.97,ESE,111,0.0,0.0,94,0.00,RA,,0.00,WeatherDisplay:10.37,2013-05-21 04:07:00,
2013-05-21 00:12:00,61.7,60.0,29.97,ESE,111,0.0,0.0,94,0.00,FEW,,0.00,WeatherDisplay:10.37,2013-05-21 04:12:00,
2013-05-21 00:17:00,61.6,59.9,29.97,ESE,111,0.0,0.0,94,0.00,CLR,,0.00,WeatherDisplay:10.37,2013-05-21 04:17:00,
2013-05-21 00:22:00,61.5,59.8,29.97,ESE,111,0.0,0.0,94,0.00,CLR,,0.00,WeatherDisplay:10.37,2013-05-21 04:22:00,
2013-05-21 00:27:00,61.5,59.8,29.97,ESE,111,0.0,0.0,94,0.00,CLR,,0.00,WeatherDisplay:10.37,2013-05-21 04:27:00,
2013-05-21 00:32:00,61.3,59.6,29.97,ESE,111,0.0,0.0,94,0.00,CLR,,0.00,WeatherDisplay:10.37,2013-05-21 04:32:00,
2013-05-21 00:37:00,61.2,59.5,29.97,ESE,111,0.0,0.0,94,0.00,CLR,,0.00,WeatherDisplay:10.37,2013-05-21 04:37:00,
2013-05-21 00:42:00,61.1,59.4,29.97,ESE,111,0.0,0.0,94,0.00,CLR,,0.00,WeatherDisplay:10.37,2013-05-21 04:42:00,
2013-05-21 00:47:00,61.0,59.3,29.97,ESE,111,0.0,0.0,94,0.00,CLR,,0.00,WeatherDisplay:10.37,2013-05-21 04:47:00,
2013-05-21 00:52:00,61.0,59.3,29.96,ESE,111,0.0,0.0,94,0.00,CLR,,0.00,WeatherDisplay:10.37,2013-05-21 04:52:00,
2013-05-21 00:57:00,60.9,59.2,29.96,ESE,111,0.0,0.0,94,0.00,CLR,,0.00,WeatherDisplay:10.37,2013-05-21 04:57:00,
2013-05-21 01:02:00,60.8,59.1,29.96,ESE,111,0.0,0.0,94,0.00,CLR,,0.00,WeatherDisplay:10.37,2013-05-21 05:02:00,
2013-05-21 01:07:00,60.7,59.0,29.96,ESE,111,0.0,0.0,94,0.00,CLR,,0.00,WeatherDisplay:10.37,2013-05-21 05:07:00,
2013-05-21 01:12:00,60.6,58.9,29.96,ESE,111,0.0,0.0,94,0.00,CLR,,0.00,WeatherDisplay:10.37,2013-05-21 05:12:00,
2013-05-21 01:17:00,60.3,58.6,29.96,ESE,111,0.0,0.0,94,0.00,CLR,,0.00,WeatherDisplay:10.37,2013-05-21 05:17:00,
2013-05-21 01:22:00,60.2,58.5,29.96,ESE,111,0.0,0.0,94,0.00,CLR,,0.00,WeatherDisplay:10.37,2013-05-21 05:22:00,
2013-05-21 01:27:00,60.2,58.8,29.96,ESE,111,0.0,0.0,95,0.00,CLR,,0.00,WeatherDisplay:10.37,2013-05-21 05:27:00,
2013-05-21 01:32:00,60.2,58.5,29.96,ESE,111,0.0,0.0,94,0.00,CLR,,0.00,WeatherDisplay:10.37,2013-05-21 05:32:00,
2013-05-21 01:37:00,60.0,58.3,29.96,ESE,111,0.0,0.0,94,0.00,CLR,,0.00,WeatherDisplay:10.37,2013-05-21 05:37:00,
2013-05-21 01:42:00,60.0,58.3,29.96,ESE,111,0.0,0.0,94,0.00,CLR,,0.00,WeatherDisplay:10.37,2013-05-21 05:42:00,
2013-05-21 01:47:00,60.0,58.6,29.96,ESE,111,0.0,0.0,95,0.00,CLR,,0.00,WeatherDisplay:10.37,2013-05-21 05:47:00,
2013-05-21 01:52:00,60.0,58.6,29.95,ESE,111,0.0,0.0,95,0.00,CLR,,0.00,WeatherDisplay:10.37,2013-05-21 05:52:00,
2013-05-21 01:57:00,60.0,58.6,29.95,ESE,111,0.0,0.0,95,0.00,CLR,,0.00,WeatherDisplay:10.37,2013-05-21 05:57:00,
2013-05-21 02:02:00,59.9,58.5,29.95,ESE,111,0.0,0.0,95,0.00,CLR,,0.00,WeatherDisplay:10.37,2013-05-21 06:02:00,
2013-05-21 02:07:00,59.9,58.5,29.95,ESE,111,0.0,0.0,95,0.00,CLR,,0.00,WeatherDisplay:10.37,2013-05-21 06:07:00,
2013-05-21 02:12:00,59.9,58.5,29.95,ESE,111,0.0,0.0,95,0.00,CLR,,0.00,WeatherDisplay:10.37,2013-05-21 06:12:00,
2013-05-21 02:17:00,59.9,58.5,29.95,ESE,111,0.0,0.0,95,0.00,CLR,,0.00,WeatherDisplay:10.37,2013-05-21 06:17:00,
2013-05-21 02:22:00,59.7,58.0,29.95,ESE,111,0.0,0.0,94,0.00,CLR,,0.00,WeatherDisplay:10.37,2013-05-21 06:22:00,
2013-05-21 02:27:00,59.5,57.8,29.95,ESE,111,0.0,0.0,94,0.00,CLR,,0.00,WeatherDisplay:10.37,2013-05-21 06:27:00,
2013-05-21 02:32:00,59.4,57.7,29.94,ESE,111,0.0,0.0,94,0.00,CLR,,0.00,WeatherDisplay:10.37,2013-05-21 06:32:00,
2013-05-21 02:37:00,59.4,58.0,29.94,ESE,111,0.0,0.0,95,0.00,CLR,,0.00,WeatherDisplay:10.37,2013-05-21 06:37:00,
2013-05-21 02:42:00,59.4,58.0,29.94,ESE,111,0.0,0.0,95,0.00,CLR,,0.00,WeatherDisplay:10.37,2013-05-21 06:42:00,
2013-05-21 02:47:00,59.2,57.5,29.93,ESE,111,0.0,0.0,94,0.00,CLR,,0.00,WeatherDisplay:10.37,2013-05-21 06:47:00,
2013-05-21 02:52:00,59.1,57.7,29.93,ESE,111,0.0,0.0,95,0.00,CLR,,0.00,WeatherDisplay:10.37,2013-05-21 06:52:00,
2013-05-21 02:57:00,58.8,57.4,29.93,ESE,111,0.0,0.0,95,0.00,CLR,,0.00,WeatherDisplay:10.37,2013-05-21 06:57:00,
2013-05-21 03:02:00,58.6,56.9,29.93,ESE,111,0.0,0.0,94,0.00,CLR,,0.00,WeatherDisplay:10.37,2013-05-21 07:02:00,
2013-05-21 03:07:00,58.5,57.1,29.93,ESE,111,0.0,0.0,95,0.00,CLR,,0.00,WeatherDisplay:10.37,2013-05-21 07:07:00,
2013-05-21 03:12:00,58.5,57.1,29.92,ESE,111,0.0,0.0,95,0.00,CLR,,0.00,WeatherDisplay:10.37,2013-05-21 07:12:00,
2013-05-21 03:17:00,58.6,57.2,29.93,ESE,111,0.0,0.0,95,0.00,CLR,,0.00,WeatherDisplay:10.37,2013-05-21 07:17:00,
2013-05-21 03:22:00,58.6,57.5,29.92,ESE,111,0.0,0.0,96,0.00,CLR,,0.00,WeatherDisplay:10.37,2013-05-21 07:22:00,
2013-05-21 03:27:00,58.6,57.5,29.92,ESE,111,0.0,0.0,96,0.00,CLR,,0.00,WeatherDisplay:10.37,2013-05-21 07:27:00,
2013-05-21 03:32:00,58.6,57.2,29.92,ESE,111,0.0,0.0,95,0.00,CLR,,0.00,WeatherDisplay:10.37,2013-05-21 07:32:00,
2013-05-21 03:37:00,58.5,57.1,29.92,ESE,111,0.0,0.0,95,0.00,CLR,,0.00,WeatherDisplay:10.37,2013-05-21 07:37:00,
2013-05-21 03:42:00,58.5,57.1,29.92,ESE,111,0.0,0.0,95,0.00,CLR,,0.00,WeatherDisplay:10.37,2013-05-21 07:42:00,
2013-05-21 03:47:00,58.5,57.1,29.92,ESE,111,0.0,0.0,95,0.00,CLR,,0.00,WeatherDisplay:10.37,2013-05-21 07:47:00,
2013-05-21 03:52:00,58.4,57.0,29.92,ESE,111,0.0,0.0,95,0.00,CLR,,0.00,WeatherDisplay:10.37,2013-05-21 07:52:00,
2013-05-21 03:57:00,58.2,56.8,29.92,ESE,111,0.0,0.0,95,0.00,CLR,,0.00,WeatherDisplay:10.37,2013-05-21 07:57:00,
2013-05-21 04:02:00,58.1,56.7,29.93,ESE,111,0.0,0.0,95,0.00,CLR,,0.00,WeatherDisplay:10.37,2013-05-21 08:02:00,
2013-05-21 04:07:00,57.8,56.4,29.93,ESE,111,0.0,0.0,95,0.00,CLR,,0.00,WeatherDisplay:10.37,2013-05-21 08:07:00,
2013-05-21 04:12:00,57.7,56.3,29.93,ESE,111,0.0,0.0,95,0.00,CLR,,0.00,WeatherDisplay:10.37,2013-05-21 08:12:00,
2013-05-21 04:17:00,57.6,56.2,29.93,ESE,111,0.0,0.0,95,0.00,CLR,,0.00,WeatherDisplay:10.37,2013-05-21 08:17:00,
2013-05-21 04:22:00,57.5,56.1,29.93,ESE,111,0.0,0.0,95,0.00,CLR,,0.00,WeatherDisplay:10.37,2013-05-21 08:22:00,
2013-05-21 04:27:00,57.5,56.4,29.93,ESE,111,0.0,0.0,96,0.00,CLR,,0.00,WeatherDisplay:10.37,2013-05-21 08:27:00,
2013-05-21 04:32:00,57.6,56.5,29.93,ESE,111,0.0,0.0,96,0.00,CLR,,0.00,WeatherDisplay:10.37,2013-05-21 08:32:00,
2013-05-21 04:37:00,57.6,56.5,29.93,ESE,111,0.0,0.0,96,0.00,CLR,,0.00,WeatherDisplay:10.37,2013-05-21 08:37:00,
2013-05-21 04:42:00,57.6,56.5,29.94,ESE,111,0.0,0.0,96,0.00,CLR,,0.00,WeatherDisplay:10.37,2013-05-21 08:42:00,
2013-05-21 04:47:00,57.6,56.5,29.94,ESE,111,0.0,0.0,96,0.00,CLR,,0.00,WeatherDisplay:10.37,2013-05-21 08:47:00,
2013-05-21 04:52:00,57.3,55.9,29.94,ESE,111,0.0,0.0,95,0.00,CLR,,0.00,WeatherDisplay:10.37,2013-05-21 08:52:00,
2013-05-21 04:57:00,57.1,55.7,29.94,ESE,111,0.0,0.0,95,0.00,CLR,,0.00,WeatherDisplay:10.37,2013-05-21 08:57:00,
2013-05-21 05:02:00,57.0,55.9,29.94,ESE,111,0.0,0.0,96,0.00,CLR,,0.00,WeatherDisplay:10.37,2013-05-21 09:02:00,
2013-05-21 05:07:00,56.9,55.5,29.94,ESE,111,0.0,0.0,95,0.00,CLR,,0.00,WeatherDisplay:10.37,2013-05-21 09:07:00,
2013-05-21 05:12:00,56.8,55.7,29.94,ESE,111,0.0,0.0,96,0.00,CLR,,0.00,WeatherDisplay:10.37,2013-05-21 09:12:00,
2013-05-21 05:17:00,56.7,55.6,29.95,ESE,111,0.0,0.0,96,0.00,CLR,,0.00,WeatherDisplay:10.37,2013-05-21 09:17:00,
2013-05-21 05:22:00,56.6,55.5,29.95,ESE,111,0.0,0.0,96,0.00,CLR,,0.00,WeatherDisplay:10.37,2013-05-21 09:22:00,
2013-05-21 05:27:00,56.6,55.5,29.95,ESE,111,0.0,0.0,96,0.00,CLR,,0.00,WeatherDisplay:10.37,2013-05-21 09:27:00,
2013-05-21 05:32:00,56.7,55.6,29.95,ESE,111,0.0,0.0,96,0.00,CLR,,0.00,WeatherDisplay:10.37,2013-05-21 09:32:00,
2013-05-21 05:37:00,56.7,55.6,29.95,ESE,111,0.0,0.0,96,0.00,CLR,,0.00,WeatherDisplay:10.37,2013-05-21 09:37:00,
2013-05-21 05:42:00,56.7,55.6,29.94,ESE,111,0.0,0.0,96,0.00,CLR,,0.00,WeatherDisplay:10.37,2013-05-21 09:42:00,
2013-05-21 05:47:00,56.6,55.5,29.93,ESE,111,0.0,0.0,96,0.00,CLR,,0.00,WeatherDisplay:10.37,2013-05-21 09:47:00,
2013-05-21 05:52:00,56.6,55.5,29.94,ESE,111,0.0,0.0,96,0.00,CLR,,0.00,WeatherDisplay:10.37,2013-05-21 09:52:00,
2013-05-21 05:57:00,56.7,55.6,29.93,ESE,111,0.0,0.0,96,0.00,CLR,,0.00,WeatherDisplay:10.37,2013-05-21 09:57:00,
2013-05-21 06:02:00,56.7,55.6,29.93,ESE,111,0.0,0.0,96,0.00,CLR,,0.00,WeatherDisplay:10.37,2013-05-21 10:02:00,
2013-05-21 06:07:00,56.9,56.1,29.94,ESE,111,0.0,0.0,97,0.00,CLR,,0.00,WeatherDisplay:10.37,2013-05-21 10:07:00,
2013-05-21 06:12:00,57.1,56.3,29.95,ESE,111,0.0,0.0,97,0.00,CLR,,0.00,WeatherDisplay:10.37,2013-05-21 10:12:00,
2013-05-21 06:17:00,57.2,56.4,29.95,ESE,111,0.0,0.0,97,0.00,CLR,,0.00,WeatherDisplay:10.37,2013-05-21 10:17:00,
2013-05-21 06:22:00,57.4,56.6,29.95,ESE,111,0.0,0.0,97,0.00,CLR,,0.00,WeatherDisplay:10.37,2013-05-21 10:22:00,
2013-05-21 06:27:00,57.6,56.8,29.96,ESE,111,0.0,0.0,97,0.00,CLR,,0.00,WeatherDisplay:10.37,2013-05-21 10:27:00,
2013-05-21 06:32:00,57.8,57.0,29.96,ESE,111,0.0,0.0,97,0.00,CLR,,0.00,WeatherDisplay:10.37,2013-05-21 10:32:00,
2013-05-21 06:37:00,58.0,57.2,29.96,ESE,111,0.0,0.0,97,0.00,CLR,,0.00,WeatherDisplay:10.37,2013-05-21 10:37:00,
2013-05-21 06:42:00,58.5,57.7,29.96,ESE,111,0.0,0.0,97,0.00,CLR,,0.00,WeatherDisplay:10.37,2013-05-21 10:42:00,
2013-05-21 06:47:00,58.8,58.0,29.95,ESE,111,0.0,0.0,97,0.00,CLR,,0.00,WeatherDisplay:10.37,2013-05-21 10:47:00,
2013-05-21 06:52:00,59.3,58.4,29.95,ESE,111,0.0,0.0,97,0.00,CLR,,0.00,WeatherDisplay:10.37,2013-05-21 10:52:00,
2013-05-21 06:57:00,59.9,59.0,29.94,ESE,111,0.0,0.0,97,0.00,CLR,,0.00,WeatherDisplay:10.37,2013-05-21 10:57:00,
2013-05-21 07:02:00,60.5,59.6,29.94,ESE,109,0.0,0.0,97,0.00,CLR,,0.00,WeatherDisplay:10.37,2013-05-21 11:02:00,
2013-05-21 07:07:00,61.0,59.9,29.94,SE,131,0.0,0.0,96,0.00,CLR,,0.00,WeatherDisplay:10.37,2013-05-21 11:07:00,
2013-05-21 07:12:00,61.2,60.1,29.95,ESE,113,0.2,1.2,96,0.00,CLR,,0.00,WeatherDisplay:10.37,2013-05-21 11:12:00,
2013-05-21 07:17:00,61.5,60.1,29.95,ESE,114,0.0,0.0,95,0.00,SCT,,0.00,WeatherDisplay:10.37,2013-05-21 11:17:00,
2013-05-21 07:22:00,61.6,60.2,29.93,East,88,4.0,8.1,95,0.00,SCT,,0.00,WeatherDisplay:10.37,2013-05-21 11:22:00,
2013-05-21 07:27:00,61.7,60.3,29.93,East,92,0.7,2.3,95,0.00,SCT,,0.00,WeatherDisplay:10.37,2013-05-21 11:27:00,
2013-05-21 07:32:00,61.7,60.3,29.93,SSE,153,0.8,3.5,95,0.00,SCT,,0.00,WeatherDisplay:10.37,2013-05-21 11:32:00,
2013-05-21 07:37:00,61.7,60.3,29.93,SSE,166,1.2,3.5,95,0.00,SCT,,0.00,WeatherDisplay:10.37,2013-05-21 11:37:00,
2013-05-21 07:42:00,61.8,60.4,29.94,SE,125,0.1,1.2,95,0.00,SCT,,0.00,WeatherDisplay:10.37,2013-05-21 11:42:00,
2013-05-21 07:47:00,62.0,60.6,29.93,SSE,154,1.5,2.3,95,0.00,BKN,,0.00,WeatherDisplay:10.37,2013-05-21 11:47:00,
2013-05-21 07:52:00,62.0,60.6,29.93,SSE,151,2.1,4.6,95,0.00,BKN,,0.00,WeatherDisplay:10.37,2013-05-21 11:52:00,
2013-05-21 07:57:00,62.2,60.8,29.93,SSE,156,1.5,3.5,95,0.00,BKN,,0.00,WeatherDisplay:10.37,2013-05-21 11:57:00,
2013-05-21 08:02:00,62.1,60.4,29.93,East,94,2.8,5.8,94,0.00,OVC,,0.00,WeatherDisplay:10.37,2013-05-21 12:02:00,
2013-05-21 08:07:00,62.2,60.8,29.93,SSE,165,2.7,4.6,95,0.00,OVC,,0.00,WeatherDisplay:10.37,2013-05-21 12:07:00,
2013-05-21 08:12:00,62.2,60.8,29.93,SSE,167,0.4,3.5,95,0.00,OVC,,0.00,WeatherDisplay:10.37,2013-05-21 12:12:00,
2013-05-21 08:17:00,62.3,60.8,29.94,SSE,166,0.7,2.3,95,0.00,OVC,,0.00,WeatherDisplay:10.37,2013-05-21 12:17:00,
2013-05-21 08:22:00,62.5,61.0,29.94,ESE,118,0.0,0.0,95,0.00,OVC,,0.00,WeatherDisplay:10.37,2013-05-21 12:22:00,
2013-05-21 08:27:00,62.8,61.0,29.95,ESE,118,0.5,2.3,94,0.00,OVC,,0.00,WeatherDisplay:10.37,2013-05-21 12:27:00,
2013-05-21 08:32:00,62.9,61.1,29.94,North,349,1.5,3.5,94,0.00,OVC,,0.00,WeatherDisplay:10.37,2013-05-21 12:32:00,
2013-05-21 08:37:00,63.0,60.9,29.95,ESE,117,0.0,1.2,93,0.00,OVC,,0.00,WeatherDisplay:10.37,2013-05-21 12:37:00,
2013-05-21 08:42:00,63.1,61.0,29.94,SSW,209,0.7,2.3,93,0.00,OVC,,0.00,WeatherDisplay:10.37,2013-05-21 12:42:00,
2013-05-21 08:47:00,63.2,61.1,29.94,East,84,0.7,2.3,93,0.00,OVC,,0.00,WeatherDisplay:10.37,2013-05-21 12:47:00,
2013-05-21 08:52:00,63.4,61.0,29.94,East,88,0.6,2.0,92,0.00,OVC,,0.00,WeatherDisplay:10.37,2013-05-21 12:52:00,
2013-05-21 08:58:00,63.6,61.2,29.94,SE,126,1.2,3.5,92,0.00,OVC,,0.00,WeatherDisplay:10.37,2013-05-21 12:58:00,
2013-05-21 09:03:00,63.7,61.0,29.94,SE,140,1.1,3.5,91,0.00,OVC,,0.00,WeatherDisplay:10.37,2013-05-21 13:03:00,
2013-05-21 09:08:00,63.9,61.2,29.94,SSE,151,0.2,2.3,91,0.00,OVC,,0.00,WeatherDisplay:10.37,2013-05-21 13:08:00,
2013-05-21 09:13:00,64.2,61.2,29.94,SE,127,0.8,3.5,90,0.00,OVC,,0.00,WeatherDisplay:10.37,2013-05-21 13:13:00,
2013-05-21 09:18:00,64.6,61.6,29.94,East,93,2.1,3.5,90,0.00,OVC,,0.00,WeatherDisplay:10.37,2013-05-21 13:18:00,
2013-05-21 09:23:00,64.8,61.5,29.94,ESE,105,1.2,3.5,89,0.00,OVC,,0.00,WeatherDisplay:10.37,2013-05-21 13:23:00,
2013-05-21 09:28:00,64.9,61.3,29.94,NW,312,2.4,3.5,88,0.00,OVC,,0.00,WeatherDisplay:10.37,2013-05-21 13:28:00,
2013-05-21 09:33:00,65.3,61.7,29.93,South,178,1.0,3.5,88,0.00,OVC,,0.00,WeatherDisplay:10.37,2013-05-21 13:33:00,
2013-05-21 09:38:00,66.0,61.7,29.93,SE,146,3.9,4.6,86,0.00,OVC,,0.00,WeatherDisplay:10.37,2013-05-21 13:38:00,
2013-05-21 09:43:00,66.6,62.3,29.93,ESE,111,1.1,3.5,86,0.00,OVC,,0.00,WeatherDisplay:10.37,2013-05-21 13:43:00,
2013-05-21 09:49:00,67.2,62.2,29.92,SE,126,2.7,5.0,84,0.00,OVC,,0.00,WeatherDisplay:10.37,2013-05-21 13:49:00,
2013-05-21 09:54:00,67.3,62.3,29.92,SE,142,1.5,3.5,84,0.00,OVC,,0.00,WeatherDisplay:10.37,2013-05-21 13:54:00,
2013-05-21 09:59:00,67.9,62.5,29.92,South,169,3.3,5.8,83,0.00,OVC,,0.00,WeatherDisplay:10.37,2013-05-21 13:59:00,
2013-05-21 10:04:00,68.3,62.6,29.92,East,90,1.9,4.6,82,0.00,OVC,,0.00,WeatherDisplay:10.37,2013-05-21 14:04:00,
2013-05-21 10:09:00,68.8,63.1,29.92,SSE,157,0.6,3.0,82,0.00,OVC,,0.00,WeatherDisplay:10.37,2013-05-21 14:09:00,
2013-05-21 10:14:00,69.4,63.3,29.92,ESE,118,1.3,1.3,81,0.00,OVC,,0.00,WeatherDisplay:10.37,2013-05-21 14:14:00,
2013-05-21 10:19:00,69.9,63.1,29.92,ESE,117,0.8,2.3,79,0.00,FEW,,0.00,WeatherDisplay:10.37,2013-05-21 14:19:00,
2013-05-21 10:24:00,70.2,63.4,29.92,ESE,102,0.2,2.3,79,0.00,FEW,,0.00,WeatherDisplay:10.37,2013-05-21 14:24:00,
2013-05-21 10:29:00,70.7,63.5,29.91,ESE,116,1.3,2.3,78,0.00,FEW,,0.00,WeatherDisplay:10.37,2013-05-21 14:29:00,
2013-05-21 10:34:00,71.3,63.7,29.91,NE,53,1.7,3.5,77,0.00,FEW,,0.00,WeatherDisplay:10.37,2013-05-21 14:34:00,
2013-05-21 10:39:00,71.3,63.7,29.91,ESE,121,2.6,5.8,77,0.00,FEW,,0.00,WeatherDisplay:10.37,2013-05-21 14:39:00,
2013-05-21 10:44:00,71.8,64.2,29.90,SSE,154,0.1,3.5,77,0.00,FEW,,0.00,WeatherDisplay:10.37,2013-05-21 14:44:00,
2013-05-21 10:49:00,72.3,63.9,29.90,ESE,103,1.0,3.5,75,0.00,FEW,,0.00,WeatherDisplay:10.37,2013-05-21 14:49:00,
2013-05-21 10:54:00,72.2,63.8,29.90,SE,137,3.5,4.0,75,0.00,FEW,,0.00,WeatherDisplay:10.37,2013-05-21 14:54:00,
2013-05-21 10:59:00,72.9,64.1,29.90,West,259,3.0,3.5,74,0.00,FEW,,0.00,WeatherDisplay:10.37,2013-05-21 14:59:00,
2013-05-21 11:04:00,73.0,64.2,29.90,ENE,76,1.2,3.5,74,0.00,CLR,,0.00,WeatherDisplay:10.37,2013-05-21 15:04:00,
2013-05-21 11:09:00,73.6,64.4,29.91,SSW,194,1.2,1.2,73,0.00,CLR,,0.00,WeatherDisplay:10.37,2013-05-21 15:09:00,
2013-05-21 11:14:00,74.2,65.0,29.91,SSW,206,0.3,2.3,73,0.00,CLR,,0.00,WeatherDisplay:10.37,2013-05-21 15:14:00,
2013-05-21 11:19:00,74.5,65.3,29.91,SSW,192,0.0,1.2,73,0.00,CLR,,0.00,WeatherDisplay:10.37,2013-05-21 15:19:00,
2013-05-21 11:24:00,74.8,66.7,29.90,SE,140,0.5,2.3,76,0.00,CLR,,0.00,WeatherDisplay:10.37,2013-05-21 15:24:00,
2013-05-21 11:29:00,74.2,67.3,29.91,East,92,0.7,2.3,79,0.00,CLR,,0.00,WeatherDisplay:10.37,2013-05-21 15:29:00,
2013-05-21 11:34:00,73.1,66.6,29.90,SE,140,1.1,3.5,80,0.00,CLR,,0.00,WeatherDisplay:10.37,2013-05-21 15:34:00,
2013-05-21 11:39:00,72.5,66.0,29.90,North,360,1.4,3.5,80,0.00,CLR,,0.00,WeatherDisplay:10.37,2013-05-21 15:39:00,
2013-05-21 11:44:00,72.0,65.1,29.89,East,92,1.9,3.5,79,0.00,CLR,,0.00,WeatherDisplay:10.37,2013-05-21 15:44:00,
2013-05-21 11:49:00,71.5,64.6,29.89,NNW,329,2.5,3.5,79,0.00,CLR,,0.00,WeatherDisplay:10.37,2013-05-21 15:49:00,
2013-05-21 11:54:00,71.7,65.2,29.90,North,5,0.3,2.3,80,0.00,CLR,,0.00,WeatherDisplay:10.37,2013-05-21 15:54:00,
2013-05-21 11:59:00,72.1,64.5,29.89,SE,130,1.7,5.0,77,0.00,CLR,,0.00,WeatherDisplay:10.37,2013-05-21 15:59:00,
2013-05-21 12:04:00,72.4,64.4,29.89,WSW,248,0.8,3.5,76,0.01,RA,,0.01,WeatherDisplay:10.37,2013-05-21 16:04:00,
2013-05-21 12:09:00,73.0,65.0,29.89,South,175,2.8,4.0,76,0.01,RA,,0.01,WeatherDisplay:10.37,2013-05-21 16:09:00,
2013-05-21 12:14:00,73.4,65.0,29.89,ESE,111,2.3,3.5,75,0.01,CLR,,0.01,WeatherDisplay:10.37,2013-05-21 16:14:00,
2013-05-21 12:19:00,73.7,65.3,29.88,NNW,348,0.9,3.5,75,0.01,BKN,,0.01,WeatherDisplay:10.37,2013-05-21 16:19:00,
2013-05-21 12:24:00,74.0,65.2,29.88,South,188,2.7,4.0,74,0.01,BKN,,0.01,WeatherDisplay:10.37,2013-05-21 16:24:00,
2013-05-21 12:29:00,74.4,65.2,29.87,SSE,149,0.7,2.3,73,0.01,BKN,,0.01,WeatherDisplay:10.37,2013-05-21 16:29:00,
2013-05-21 12:34:00,75.0,65.4,29.87,ENE,72,2.0,3.5,72,0.01,BKN,,0.01,WeatherDisplay:10.37,2013-05-21 16:34:00,
2013-05-21 12:39:00,75.2,65.6,29.87,SE,133,2.4,4.0,72,0.01,BKN,,0.01,WeatherDisplay:10.37,2013-05-21 16:39:00,
2013-05-21 12:44:00,75.6,65.5,29.87,NNE,29,1.6,1.6,71,0.01,BKN,,0.01,WeatherDisplay:10.37,2013-05-21 16:44:00,
2013-05-21 12:49:00,76.1,66.4,29.87,SE,128,1.0,2.3,72,0.01,BKN,,0.01,WeatherDisplay:10.37,2013-05-21 16:49:00,
2013-05-21 12:54:00,76.5,66.0,29.88,NE,35,2.7,3.5,70,0.01,BKN,,0.01,WeatherDisplay:10.37,2013-05-21 16:54:00,
2013-05-21 12:59:00,76.8,65.9,29.88,WSW,257,1.6,3.5,69,0.01,BKN,,0.01,WeatherDisplay:10.37,2013-05-21 16:59:00,
2013-05-21 13:04:00,76.9,65.5,29.87,SE,130,1.5,4.6,68,0.00,BKN,,0.01,WeatherDisplay:10.37,2013-05-21 17:04:00,
2013-05-21 13:09:00,77.1,66.1,29.87,East,80,1.4,3.5,69,0.00,BKN,,0.01,WeatherDisplay:10.37,2013-05-21 17:09:00,
2013-05-21 13:15:00,77.2,65.8,29.87,NNW,332,0.6,4.6,68,0.00,BKN,,0.01,WeatherDisplay:10.37,2013-05-21 17:15:00,
2013-05-21 13:20:00,77.6,66.2,29.87,SSE,165,3.1,5.8,68,0.00,BKN,,0.01,WeatherDisplay:10.37,2013-05-21 17:20:00,
2013-05-21 13:25:00,77.9,66.1,29.86,South,171,2.5,3.5,67,0.00,BKN,,0.01,WeatherDisplay:10.37,2013-05-21 17:25:00,
2013-05-21 13:30:00,78.4,66.5,29.86,SW,219,1.2,3.5,67,0.00,BKN,,0.01,WeatherDisplay:10.37,2013-05-21 17:30:00,
2013-05-21 13:35:00,78.7,66.4,29.87,South,172,1.6,5.0,66,0.00,BKN,,0.01,WeatherDisplay:10.37,2013-05-21 17:35:00,
2013-05-21 13:40:00,78.8,66.5,29.87,South,189,2.4,3.5,66,0.00,BKN,,0.01,WeatherDisplay:10.37,2013-05-21 17:40:00,
2013-05-21 13:45:00,79.1,66.8,29.86,East,96,2.4,3.5,66,0.00,BKN,,0.01,WeatherDisplay:10.37,2013-05-21 17:45:00,
2013-05-21 13:50:00,79.4,67.0,29.86,SSE,153,2.3,4.6,66,0.00,BKN,,0.01,WeatherDisplay:10.37,2013-05-21 17:50:00,
2013-05-21 13:55:00,79.8,67.0,29.86,East,81,3.2,5.0,65,0.00,BKN,,0.01,WeatherDisplay:10.37,2013-05-21 17:55:00,
2013-05-21 14:00:00,79.9,67.1,29.86,South,175,3.2,6.9,65,0.00,BKN,,0.01,WeatherDisplay:10.37,2013-05-21 18:00:00,
2013-05-21 14:05:00,80.3,67.5,29.86,SSE,168,1.7,5.0,65,0.00,BKN,,0.01,WeatherDisplay:10.37,2013-05-21 18:05:00,
2013-05-21 14:10:00,80.5,66.7,29.86,North,349,1.7,3.5,63,0.00,BKN,,0.01,WeatherDisplay:10.37,2013-05-21 18:10:00,
2013-05-21 14:15:00,79.8,66.1,29.87,East,94,2.4,3.5,63,0.00,BKN,,0.01,WeatherDisplay:10.37,2013-05-21 18:15:00,
2013-05-21 14:20:00,78.4,64.8,29.87,NNW,346,1.5,4.0,63,0.00,CLR,,0.01,WeatherDisplay:10.37,2013-05-21 18:20:00,
2013-05-21 14:25:00,77.1,63.1,29.88,East,86,5.2,8.1,62,0.00,CLR,,0.01,WeatherDisplay:10.37,2013-05-21 18:25:00,
2013-05-21 14:30:00,75.3,62.7,29.88,NNW,342,2.5,4.6,65,0.00,CLR,,0.01,WeatherDisplay:10.37,2013-05-21 18:30:00,
2013-05-21 14:35:00,74.3,62.2,29.88,NNW,331,3.1,4.0,66,0.00,CLR,,0.01,WeatherDisplay:10.37,2013-05-21 18:35:00,
2013-05-21 14:40:00,73.2,61.6,29.88,SSW,192,2.8,3.5,67,0.00,CLR,,0.01,WeatherDisplay:10.37,2013-05-21 18:40:00,
2013-05-21 14:45:00,72.5,61.3,29.88,East,85,5.1,8.1,68,0.00,CLR,,0.01,WeatherDisplay:10.37,2013-05-21 18:45:00,
2013-05-21 14:50:00,71.3,60.6,29.88,SE,146,4.6,9.0,69,0.00,CLR,,0.01,WeatherDisplay:10.37,2013-05-21 18:50:00,
2013-05-21 14:55:00,70.9,61.0,29.88,NNW,343,1.6,3.5,71,0.00,CLR,,0.01,WeatherDisplay:10.37,2013-05-21 18:55:00,
2013-05-21 15:00:00,70.4,59.3,29.90,ENE,59,2.8,5.8,68,0.00,CLR,,0.01,WeatherDisplay:10.37,2013-05-21 19:00:00,
2013-05-21 15:05:00,68.8,58.6,29.89,NNE,18,4.7,11.5,70,0.00,CLR,,0.01,WeatherDisplay:10.37,2013-05-21 19:05:00,
2013-05-21 15:10:00,67.9,58.5,29.89,NNE,13,4.6,8.1,72,0.00,CLR,,0.01,WeatherDisplay:10.37,2013-05-21 19:10:00,
2013-05-21 15:15:00,67.6,58.2,29.89,NNW,341,3.0,8.1,72,0.00,CLR,,0.01,WeatherDisplay:10.37,2013-05-21 19:15:00,
2013-05-21 15:20:00,67.1,57.8,29.90,North,350,4.5,11.5,72,0.00,CLR,,0.01,WeatherDisplay:10.37,2013-05-21 19:20:00,
2013-05-21 15:25:00,66.2,57.7,29.90,SSW,194,3.7,4.6,74,0.00,CLR,,0.01,WeatherDisplay:10.37,2013-05-21 19:25:00,
2013-05-21 15:30:00,65.3,57.2,29.90,NNW,330,2.2,3.5,75,0.00,CLR,,0.01,WeatherDisplay:10.37,2013-05-21 19:30:00,
2013-05-21 15:35:00,65.0,57.2,29.90,NNW,332,1.8,3.5,76,0.00,CLR,,0.01,WeatherDisplay:10.37,2013-05-21 19:35:00,
2013-05-21 15:40:00,65.7,57.9,29.90,NNE,19,1.0,3.5,76,0.00,CLR,,0.01,WeatherDisplay:10.37,2013-05-21 19:40:00,
2013-05-21 15:45:00,66.2,57.7,29.90,SE,124,6.6,11.5,74,0.00,CLR,,0.01,WeatherDisplay:10.37,2013-05-21 19:45:00,
2013-05-21 15:50:00,65.9,57.0,29.90,ENE,69,5.9,9.0,73,0.00,CLR,,0.01,WeatherDisplay:10.37,2013-05-21 19:50:00,
2013-05-21 15:55:00,65.4,56.9,29.90,SE,132,2.3,3.5,74,0.00,CLR,,0.01,WeatherDisplay:10.37,2013-05-21 19:55:00,
2013-05-21 16:00:00,65.1,56.6,29.90,NNE,12,4.0,5.8,74,0.00,CLR,,0.01,WeatherDisplay:10.37,2013-05-21 20:00:00,
2013-05-21 16:05:00,64.6,56.1,29.91,SE,124,2.7,4.6,74,0.00,CLR,,0.01,WeatherDisplay:10.37,2013-05-21 20:05:00,
2013-05-21 16:10:00,63.8,55.4,29.91,East,96,4.7,8.1,74,0.00,CLR,,0.01,WeatherDisplay:10.37,2013-05-21 20:10:00,
2013-05-21 16:15:00,63.0,55.3,29.91,NNW,338,1.6,9.2,76,0.00,CLR,,0.01,WeatherDisplay:10.37,2013-05-21 20:15:00,
2013-05-21 16:20:00,62.8,55.1,29.91,NNW,348,2.0,3.5,76,0.00,CLR,,0.01,WeatherDisplay:10.37,2013-05-21 20:20:00,
2013-05-21 16:25:00,62.5,54.8,29.91,SE,127,4.1,8.1,76,0.00,CLR,,0.01,WeatherDisplay:10.37,2013-05-21 20:25:00,
2013-05-21 16:30:00,61.9,54.2,29.92,ENE,60,1.7,5.8,76,0.00,CLR,,0.01,WeatherDisplay:10.37,2013-05-21 20:30:00,
2013-05-21 16:35:00,61.3,54.4,29.92,East,82,2.6,6.0,78,0.00,FEW,,0.01,WeatherDisplay:10.37,2013-05-21 20:35:00,
2013-05-21 16:40:00,60.6,54.0,29.92,NE,50,1.4,3.5,79,0.00,FEW,,0.01,WeatherDisplay:10.37,2013-05-21 20:40:00,
2013-05-21 16:45:00,60.1,53.6,29.92,ENE,74,3.1,6.9,79,0.00,FEW,,0.01,WeatherDisplay:10.37,2013-05-21 20:45:00,
2013-05-21 16:50:00,59.2,53.0,29.93,NNE,17,5.1,6.9,80,0.00,FEW,,0.01,WeatherDisplay:10.37,2013-05-21 20:50:00,
2013-05-21 16:55:00,58.6,53.1,29.93,WNW,300,2.4,4.6,82,0.00,FEW,,0.01,WeatherDisplay:10.37,2013-05-21 20:55:00,
2013-05-21 17:00:00,58.2,52.7,29.94,SE,130,2.5,4.6,82,0.00,FEW,,0.01,WeatherDisplay:10.37,2013-05-21 21:00:00,
2013-05-21 17:05:00,57.9,52.4,29.94,ESE,105,2.2,3.5,82,0.00,OVC,,0.01,WeatherDisplay:10.37,2013-05-21 21:05:00,
2013-05-21 17:10:00,57.3,52.2,29.94,SE,142,4.5,8.1,83,0.00,OVC,,0.01,WeatherDisplay:10.37,2013-05-21 21:10:00,
2013-05-21 17:15:00,56.8,51.7,29.94,SE,132,3.8,9.2,83,0.00,OVC,,0.01,WeatherDisplay:10.37,2013-05-21 21:15:00,
2013-05-21 17:20:00,56.7,51.9,29.94,SSE,152,3.2,6.9,84,0.00,OVC,,0.01,WeatherDisplay:10.37,2013-05-21 21:20:00,
2013-05-21 17:25:00,56.5,51.7,29.94,East,90,1.7,4.6,84,0.00,OVC,,0.01,WeatherDisplay:10.37,2013-05-21 21:25:00,
2013-05-21 17:30:00,56.2,51.4,29.95,ENE,66,1.5,3.5,84,0.00,OVC,,0.01,WeatherDisplay:10.37,2013-05-21 21:30:00,
2013-05-21 17:35:00,56.0,51.6,29.95,East,82,1.1,4.6,85,0.00,OVC,,0.01,WeatherDisplay:10.37,2013-05-21 21:35:00,
2013-05-21 17:40:00,56.0,51.6,29.94,SSE,155,2.7,6.9,85,0.00,OVC,,0.01,WeatherDisplay:10.37,2013-05-21 21:40:00,
2013-05-21 17:45:00,55.7,51.3,29.94,NW,320,2.9,8.1,85,0.00,OVC,,0.01,WeatherDisplay:10.37,2013-05-21 21:45:00,
2013-05-21 17:50:00,55.4,51.3,29.94,East,97,2.7,6.0,86,0.00,OVC,,0.01,WeatherDisplay:10.37,2013-05-21 21:50:00,
2013-05-21 17:55:00,55.3,51.2,29.96,NW,321,1.7,2.3,86,0.00,OVC,,0.01,WeatherDisplay:10.37,2013-05-21 21:55:00,
2013-05-21 18:00:00,55.0,50.9,29.96,East,94,3.3,3.5,86,0.00,OVC,,0.01,WeatherDisplay:10.37,2013-05-21 22:00:00,
2013-05-21 18:05:00,54.5,50.7,29.97,NNE,15,3.2,5.8,87,0.00,OVC,,0.01,WeatherDisplay:10.37,2013-05-21 22:05:00,
2013-05-21 18:10:00,54.1,50.3,29.98,South,175,3.4,5.8,87,0.00,OVC,,0.01,WeatherDisplay:10.37,2013-05-21 22:10:00,
2013-05-21 18:15:00,54.1,50.6,29.99,SSE,147,2.7,7.0,88,0.00,OVC,,0.01,WeatherDisplay:10.37,2013-05-21 22:15:00,
2013-05-21 18:20:00,53.9,50.1,29.99,South,170,1.8,4.6,87,0.00,OVC,,0.01,WeatherDisplay:10.37,2013-05-21 22:20:00,
2013-05-21 18:25:00,53.8,50.3,29.98,NNE,33,2.3,4.6,88,0.00,OVC,,0.01,WeatherDisplay:10.37,2013-05-21 22:25:00,
2013-05-21 18:30:00,53.8,50.0,29.99,ENE,75,2.0,4.6,87,0.00,OVC,,0.01,WeatherDisplay:10.37,2013-05-21 22:30:00,
2013-05-21 18:35:00,53.7,49.9,30.00,East,90,2.4,4.6,87,0.00,OVC,,0.01,WeatherDisplay:10.37,2013-05-21 22:35:00,
2013-05-21 18:40:00,53.5,50.0,30.00,ENE,70,1.8,3.0,88,0.00,OVC,,0.01,WeatherDisplay:10.37,2013-05-21 22:40:00,
2013-05-21 18:45:00,53.6,50.1,30.00,SSW,193,1.7,3.0,88,0.00,OVC,,0.01,WeatherDisplay:10.37,2013-05-21 22:45:00,
2013-05-21 18:50:00,53.5,49.7,30.00,SSW,201,1.7,3.5,87,0.00,OVC,,0.01,WeatherDisplay:10.37,2013-05-21 22:50:00,
2013-05-21 18:55:00,53.6,50.1,30.01,SE,144,1.6,5.0,88,0.00,OVC,,0.01,WeatherDisplay:10.37,2013-05-21 22:55:00,
2013-05-21 19:01:00,53.5,49.7,30.00,ENE,59,2.3,4.6,87,0.00,OVC,,0.01,WeatherDisplay:10.37,2013-05-21 23:01:00,
2013-05-21 19:06:00,53.4,49.6,30.00,East,101,2.5,5.8,87,0.00,OVC,,0.01,WeatherDisplay:10.37,2013-05-21 23:06:00,
2013-05-21 19:11:00,53.3,49.5,30.00,NE,45,1.6,3.5,87,0.00,OVC,,0.01,WeatherDisplay:10.37,2013-05-21 23:11:00,
2013-05-21 19:16:00,53.3,49.5,30.00,ESE,103,2.3,3.5,87,0.00,OVC,,0.01,WeatherDisplay:10.37,2013-05-21 23:16:00,
2013-05-21 19:21:00,53.4,49.6,29.99,East,81,1.7,3.5,87,0.00,OVC,,0.01,WeatherDisplay:10.37,2013-05-21 23:21:00,
2013-05-21 19:26:00,53.3,49.5,29.99,NNE,32,2.4,4.6,87,0.00,OVC,,0.01,WeatherDisplay:10.37,2013-05-21 23:26:00,
2013-05-21 19:31:00,53.0,49.2,29.98,East,82,3.9,6.9,87,0.00,OVC,,0.01,WeatherDisplay:10.37,2013-05-21 23:31:00,
2013-05-21 19:36:00,52.8,49.3,29.99,SE,127,2.3,8.0,88,0.00,OVC,,0.01,WeatherDisplay:10.37,2013-05-21 23:36:00,
2013-05-21 19:41:00,52.7,49.2,29.99,ENE,63,0.3,3.5,88,0.00,OVC,,0.01,WeatherDisplay:10.37,2013-05-21 23:41:00,
2013-05-21 19:46:00,52.6,49.1,29.99,SSE,157,1.0,3.5,88,0.00,OVC,,0.01,WeatherDisplay:10.37,2013-05-21 23:46:00,
2013-05-21 19:51:00,52.5,49.0,29.99,SSW,202,2.6,4.0,88,0.00,OVC,,0.01,WeatherDisplay:10.37,2013-05-21 23:51:00,
2013-05-21 19:56:00,52.4,48.9,30.00,ENE,67,2.0,3.5,88,0.00,OVC,,0.01,WeatherDisplay:10.37,2013-05-21 23:56:00,
2013-05-21 20:01:00,52.4,48.9,30.00,NNE,30,1.1,3.5,88,0.00,OVC,,0.01,WeatherDisplay:10.37,2013-05-22 00:01:00,
2013-05-21 20:06:00,52.3,49.2,30.00,East,80,0.2,1.2,89,0.00,OVC,,0.01,WeatherDisplay:10.37,2013-05-22 00:06:00,
2013-05-21 20:11:00,52.4,49.3,30.01,ESE,115,0.5,1.2,89,0.00,OVC,,0.01,WeatherDisplay:10.37,2013-05-22 00:11:00,
2013-05-21 20:16:00,52.4,48.9,30.00,SSE,156,2.8,4.6,88,0.00,OVC,,0.01,WeatherDisplay:10.37,2013-05-22 00:16:00,
2013-05-21 20:21:00,52.2,49.1,29.99,SSE,150,1.4,3.5,89,0.00,OVC,,0.01,WeatherDisplay:10.37,2013-05-22 00:21:00,
2013-05-21 20:26:00,52.2,49.4,29.99,SE,138,0.6,2.3,90,0.00,OVC,,0.01,WeatherDisplay:10.37,2013-05-22 00:26:00,
2013-05-21 20:31:00,52.2,49.4,30.00,East,92,0.3,1.2,90,0.00,OVC,,0.01,WeatherDisplay:10.37,2013-05-22 00:31:00,
2013-05-21 20:36:00,52.2,49.4,29.99,SSE,150,2.0,6.0,90,0.00,OVC,,0.01,WeatherDisplay:10.37,2013-05-22 00:36:00,
2013-05-21 20:41:00,52.1,49.3,29.98,NE,38,0.6,2.3,90,0.00,OVC,,0.01,WeatherDisplay:10.37,2013-05-22 00:41:00,
2013-05-21 20:46:00,52.1,49.3,29.99,North,5,0.1,1.2,90,0.00,OVC,,0.01,WeatherDisplay:10.37,2013-05-22 00:46:00,
2013-05-21 20:51:00,52.2,49.1,29.99,East,89,0.9,3.5,89,0.00,OVC,,0.01,WeatherDisplay:10.37,2013-05-22 00:51:00,
2013-05-21 20:56:00,52.1,49.0,29.99,NE,34,1.0,3.0,89,0.00,OVC,,0.01,WeatherDisplay:10.37,2013-05-22 00:56:00,
2013-05-21 21:01:00,52.1,49.3,29.98,SE,134,1.8,4.0,90,0.00,OVC,,0.01,WeatherDisplay:10.37,2013-05-22 01:01:00,
2013-05-21 21:06:00,52.1,49.3,29.99,WNW,299,1.1,2.3,90,0.00,OVC,,0.01,WeatherDisplay:10.37,2013-05-22 01:06:00,
2013-05-21 21:11:00,52.1,49.3,29.98,ENE,67,0.3,1.2,90,0.00,OVC,,0.01,WeatherDisplay:10.37,2013-05-22 01:11:00,
2013-05-21 21:16:00,52.2,49.4,29.98,SE,144,0.6,1.2,90,0.00,OVC,,0.01,WeatherDisplay:10.37,2013-05-22 01:16:00,
2013-05-21 21:21:00,52.1,49.0,29.98,ENE,77,0.3,2.3,89,0.00,OVC,,0.01,WeatherDisplay:10.37,2013-05-22 01:21:00,
2013-05-21 21:26:00,52.1,49.3,29.98,SE,126,2.2,3.5,90,0.00,OVC,,0.01,WeatherDisplay:10.37,2013-05-22 01:26:00,
2013-05-21 21:31:00,52.0,49.2,29.97,ESE,103,1.4,3.5,90,0.00,OVC,,0.01,WeatherDisplay:10.37,2013-05-22 01:31:00,
2013-05-21 21:36:00,51.9,49.1,29.98,ESE,104,2.5,8.1,90,0.00,OVC,,0.01,WeatherDisplay:10.37,2013-05-22 01:36:00,
2013-05-21 21:41:00,51.8,49.0,29.98,ENE,64,1.8,6.9,90,0.00,OVC,,0.01,WeatherDisplay:10.37,2013-05-22 01:41:00,
2013-05-21 21:46:00,51.7,49.2,29.98,North,5,0.1,1.2,91,0.00,OVC,,0.01,WeatherDisplay:10.37,2013-05-22 01:46:00,
2013-05-21 21:51:00,51.7,48.9,29.98,SE,134,2.5,3.5,90,0.00,OVC,,0.01,WeatherDisplay:10.37,2013-05-22 01:51:00,
2013-05-21 21:56:00,51.7,49.2,29.98,NNE,17,1.2,2.3,91,0.00,OVC,,0.01,WeatherDisplay:10.37,2013-05-22 01:56:00,
2013-05-21 22:01:00,51.7,49.2,29.99,WNW,291,0.7,3.5,91,0.00,OVC,,0.01,WeatherDisplay:10.37,2013-05-22 02:01:00,
2013-05-21 22:06:00,51.5,49.0,29.99,East,92,1.2,2.3,91,0.00,OVC,,0.01,WeatherDisplay:10.37,2013-05-22 02:06:00,
2013-05-21 22:11:00,51.5,49.0,29.99,NE,34,0.0,1.2,91,0.00,OVC,,0.01,WeatherDisplay:10.37,2013-05-22 02:11:00,
2013-05-21 22:16:00,51.5,49.0,29.99,South,173,1.0,2.3,91,0.00,OVC,,0.01,WeatherDisplay:10.37,2013-05-22 02:16:00,
2013-05-21 22:21:00,51.6,49.1,29.99,ENE,74,2.7,4.6,91,0.00,OVC,,0.01,WeatherDisplay:10.37,2013-05-22 02:21:00,
2013-05-21 22:26:00,51.4,48.9,29.99,NE,37,0.3,2.3,91,0.00,OVC,,0.01,WeatherDisplay:10.37,2013-05-22 02:26:00,
2013-05-21 22:31:00,51.4,48.9,29.99,SE,139,2.5,6.0,91,0.00,OVC,,0.01,WeatherDisplay:10.37,2013-05-22 02:31:00,
2013-05-21 22:36:00,51.3,49.1,29.97,East,89,1.5,3.0,92,0.00,OVC,,0.01,WeatherDisplay:10.37,2013-05-22 02:36:00,
2013-05-21 22:41:00,51.2,49.0,29.95,East,91,2.1,3.5,92,0.00,OVC,,0.01,WeatherDisplay:10.37,2013-05-22 02:41:00,
2013-05-21 22:46:00,51.2,49.0,29.96,WSW,248,2.0,4.6,92,0.00,OVC,,0.01,WeatherDisplay:10.37,2013-05-22 02:46:00,
2013-05-21 22:51:00,51.2,49.0,29.96,ENE,62,0.4,1.2,92,0.00,OVC,,0.01,WeatherDisplay:10.37,2013-05-22 02:51:00,
2013-05-21 22:56:00,51.1,48.9,29.97,ENE,76,1.1,4.6,92,0.00,OVC,,0.01,WeatherDisplay:10.37,2013-05-22 02:56:00,
2013-05-21 23:01:00,51.1,49.1,29.98,NNW,342,2.7,5.8,93,0.00,OVC,,0.01,WeatherDisplay:10.37,2013-05-22 03:01:00,
2013-05-21 23:06:00,51.2,49.2,29.98,West,270,0.2,2.3,93,0.00,OVC,,0.01,WeatherDisplay:10.37,2013-05-22 03:06:00,
2013-05-21 23:11:00,51.2,49.2,29.99,NNW,340,0.0,2.3,93,0.00,OVC,,0.01,WeatherDisplay:10.37,2013-05-22 03:11:00,
2013-05-21 23:16:00,51.3,49.1,29.99,SSW,200,0.6,3.5,92,0.00,OVC,,0.01,WeatherDisplay:10.37,2013-05-22 03:16:00,
2013-05-21 23:21:00,51.2,49.2,29.99,NW,307,0.0,1.2,93,0.00,OVC,,0.01,WeatherDisplay:10.37,2013-05-22 03:21:00,
2013-05-21 23:26:00,51.2,49.2,29.99,NNE,16,1.3,2.3,93,0.00,OVC,,0.01,WeatherDisplay:10.37,2013-05-22 03:26:00,
2013-05-21 23:31:00,51.2,49.2,30.00,East,100,0.2,1.2,93,0.00,OVC,,0.01,WeatherDisplay:10.37,2013-05-22 03:31:00,
2013-05-21 23:36:00,51.2,49.2,30.01,ENE,68,0.5,2.3,93,0.00,OVC,,0.01,WeatherDisplay:10.37,2013-05-22 03:36:00,
2013-05-21 23:41:00,51.4,49.4,30.01,ENE,75,1.7,3.5,93,0.00,OVC,,0.01,WeatherDisplay:10.37,2013-05-22 03:41:00,
2013-05-21 23:46:00,51.4,49.4,30.01,ENE,61,1.6,3.5,93,0.00,OVC,,0.01,WeatherDisplay:10.37,2013-05-22 03:46:00,
2013-05-21 23:51:00,51.4,49.4,30.02,NNW,343,2.4,4.6,93,0.00,OVC,,0.01,WeatherDisplay:10.37,2013-05-22 03:51:00,
2013-05-21 23:56:00,51.2,49.2,30.01,SSW,209,1.3,6.9,93,0.00,OVC,,0.01,WeatherDisplay:10.37,2013-05-22 03:56:00,